Time;durP1;ratioP1;P1;durP2;ratioP2;P2;SDS_P1;SDS_P2;PMS_P1;PMS_P2;Temp;Humidity;BMP_temperature;BMP_pressure;BME280_temperature;BME280_humidity;BME280_pressure;Samples;Min_cycle;Max_cycle;Signal;HPM_P1;HPM_P2
2023/02/13 00:01:22;;;;;;;13.32;7.47;;;7.30;87.80;;;;;;5026884;28;20068;-61
2023/02/13 00:03:49;;;;;;;12.73;7.18;;;7.30;87.80;;;;;;5034744;28;20061;-60
2023/02/13 00:06:15;;;;;;;11.90;7.05;;;7.30;87.80;;;;;;5034763;28;20049;-61
2023/02/13 00:08:42;;;;;;;13.75;7.40;;;7.30;87.80;;;;;;5036056;28;20057;-60
2023/02/13 00:11:10;;;;;;;13.02;7.05;;;7.30;87.80;;;;;;5039547;28;20111;-59
2023/02/13 00:13:38;;;;;;;12.30;6.68;;;7.30;87.80;;;;;;5035063;28;20049;-60
2023/02/13 00:16:07;;;;;;;15.27;7.18;;;7.30;87.80;;;;;;5027556;28;20049;-61
2023/02/13 00:18:36;;;;;;;13.00;7.00;;;7.30;87.60;;;;;;5022371;28;20049;-59
2023/02/13 00:21:05;;;;;;;11.63;6.95;;;7.20;87.90;;;;;;5039069;28;20088;-60
2023/02/13 00:23:33;;;;;;;12.53;6.87;;;7.20;87.70;;;;;;5038379;28;20134;-60
2023/02/13 00:26:01;;;;;;;13.10;7.20;;;7.20;87.60;;;;;;5036720;28;20037;-61
2023/02/13 00:28:28;;;;;;;13.73;7.50;;;7.20;87.70;;;;;;5037079;28;20045;-60
2023/02/13 00:31:03;;;;;;;13.43;7.22;;;7.20;87.70;;;;;;5036592;28;20442;-59
2023/02/13 00:33:31;;;;;;;12.23;6.82;;;7.30;87.70;;;;;;5037815;28;20075;-60
2023/02/13 00:36:04;;;;;;;11.02;6.40;;;7.20;87.80;;;;;;5037439;28;20050;-60
2023/02/13 00:38:31;;;;;;;11.00;6.18;;;7.20;87.70;;;;;;5038499;28;20064;-59
2023/02/13 00:40:57;;;;;;;11.63;6.78;;;7.30;87.70;;;;;;5039467;28;20055;-59
2023/02/13 00:43:24;;;;;;;12.50;6.57;;;7.30;87.60;;;;;;5034910;28;20077;-59
2023/02/13 00:45:51;;;;;;;12.85;6.97;;;7.20;87.50;;;;;;5037199;28;20088;-61
2023/02/13 00:48:18;;;;;;;12.57;6.70;;;7.30;87.60;;;;;;5037241;28;20098;-60
2023/02/13 00:50:47;;;;;;;12.68;6.65;;;7.20;87.60;;;;;;5036686;28;20065;-61
2023/02/13 00:53:14;;;;;;;9.50;5.93;;;7.20;87.70;;;;;;5034793;28;20045;-61
2023/02/13 00:55:41;;;;;;;14.32;6.88;;;7.20;87.80;;;;;;5036341;28;20127;-60
2023/02/13 00:58:09;;;;;;;11.15;6.28;;;7.20;87.70;;;;;;5036143;28;20514;-60
2023/02/13 01:00:35;;;;;;;13.90;7.40;;;7.20;87.70;;;;;;5030212;28;20141;-60
2023/02/13 01:03:07;;;;;;;12.13;6.90;;;7.20;87.70;;;;;;5028778;28;20053;-61
2023/02/13 01:05:34;;;;;;;12.65;7.10;;;7.20;87.70;;;;;;5027915;28;20065;-61
2023/02/13 01:08:03;;;;;;;11.48;6.57;;;7.20;87.70;;;;;;5033152;28;20467;-61
2023/02/13 01:10:30;;;;;;;12.38;7.25;;;7.20;87.70;;;;;;5036531;28;20064;-59
2023/02/13 01:12:56;;;;;;;12.80;6.97;;;7.20;87.80;;;;;;5031628;28;20045;-60
2023/02/13 01:15:24;;;;;;;11.88;6.38;;;7.20;87.80;;;;;;5032874;28;20056;-60
2023/02/13 01:17:53;;;;;;;10.60;6.22;;;7.20;87.80;;;;;;5033582;28;20108;-61
2023/02/13 01:20:20;;;;;;;11.82;6.85;;;7.20;87.80;;;;;;5031149;28;20058;-60
2023/02/13 01:22:47;;;;;;;11.57;6.93;;;7.20;87.80;;;;;;5037302;28;20056;-62
2023/02/13 01:25:21;;;;;;;15.32;6.75;;;7.20;87.80;;;;;;5035644;28;20389;-59
2023/02/13 01:27:52;;;;;;;12.77;6.50;;;7.20;87.80;;;;;;5036853;28;20049;-61
2023/02/13 01:30:19;;;;;;;11.82;6.70;;;7.20;87.90;;;;;;5034194;28;20081;-59
2023/02/13 01:32:47;;;;;;;10.68;6.10;;;7.20;87.90;;;;;;5037337;28;20049;-60
2023/02/13 01:35:15;;;;;;;12.65;6.40;;;7.20;87.90;;;;;;5032666;28;20056;-61
2023/02/13 01:37:42;;;;;;;12.07;6.60;;;7.20;87.80;;;;;;5032833;28;20069;-60
2023/02/13 01:40:12;;;;;;;11.95;6.32;;;7.20;87.90;;;;;;5032838;28;20045;-61
2023/02/13 01:42:41;;;;;;;12.57;6.68;;;7.20;88.00;;;;;;5032950;28;20483;-60
2023/02/13 01:45:23;;;;;;;11.43;6.40;;;7.20;87.90;;;;;;5032547;28;20060;-59
2023/02/13 01:47:54;;;;;;;12.55;6.78;;;7.20;87.90;;;;;;5027059;28;20068;-61
2023/02/13 01:50:30;;;;;;;11.93;6.50;;;7.20;87.90;;;;;;5034542;28;20076;-60
2023/02/13 01:53:02;;;;;;;12.15;6.68;;;7.20;87.90;;;;;;5035837;28;20053;-60
2023/02/13 01:55:31;;;;;;;10.07;6.22;;;7.20;87.90;;;;;;5035310;28;20048;-60
2023/02/13 01:58:05;;;;;;;10.35;6.22;;;7.20;87.90;;;;;;5037124;28;20053;-59
2023/02/13 02:00:33;;;;;;;10.90;6.32;;;7.20;87.80;;;;;;5033617;28;20050;-60
2023/02/13 02:03:11;;;;;;;11.45;6.47;;;7.20;87.90;;;;;;5036580;28;20053;-61
2023/02/13 02:05:39;;;;;;;11.43;6.20;;;7.20;87.80;;;;;;5031526;28;20049;-61
2023/02/13 02:08:09;;;;;;;12.07;6.78;;;7.20;87.80;;;;;;5031888;28;20046;-61
2023/02/13 02:10:37;;;;;;;10.63;6.40;;;7.20;87.80;;;;;;5034078;28;20045;-60
2023/02/13 02:13:09;;;;;;;11.57;6.32;;;7.20;87.80;;;;;;5034924;28;20112;-60
2023/02/13 02:15:38;;;;;;;11.20;6.78;;;7.20;87.80;;;;;;5037371;28;20049;-61
2023/02/13 02:18:07;;;;;;;12.63;6.82;;;7.20;87.80;;;;;;5032106;28;20128;-60
2023/02/13 02:21:09;;;;;;;10.63;6.22;;;7.20;87.80;;;;;;5031390;28;20041;-60
2023/02/13 02:23:56;;;;;;;11.18;5.93;;;7.20;87.90;;;;;;5013534;28;20044;-60
2023/02/13 02:26:57;;;;;;;11.23;6.05;;;7.20;87.80;;;;;;5029643;28;20061;-61
2023/02/13 02:30:08;;;;;;;10.35;5.50;;;7.20;87.90;;;;;;5030933;28;20144;-60
2023/02/13 02:32:48;;;;;;;10.18;5.40;;;7.20;87.90;;;;;;5031760;28;20045;-60
2023/02/13 02:35:26;;;;;;;9.75;5.45;;;7.20;87.90;;;;;;5031881;28;20041;-60
2023/02/13 02:38:08;;;;;;;9.98;5.72;;;7.20;87.90;;;;;;5031650;28;20041;-60
2023/02/13 02:40:43;;;;;;;12.13;6.57;;;7.20;87.90;;;;;;5029164;28;20053;-62
2023/02/13 02:43:24;;;;;;;9.40;5.68;;;7.10;87.90;;;;;;5035731;28;20049;-63
2023/02/13 02:45:56;;;;;;;11.38;5.90;;;7.10;87.90;;;;;;5031521;28;20076;-61
2023/02/13 02:51:26;;;;;;;10.55;5.47;;;7.10;87.90;;;;;;5008221;28;20057;-61
2023/02/13 02:55:05;;;;;;;10.88;5.30;;;7.10;88.00;;;;;;5032426;28;20049;-60
2023/02/13 02:56:56;;;;;;;9.57;5.55;;;7.10;87.90;;;;;;5032519;28;20076;-60
2023/02/13 03:08:04;;;;;;;10.27;5.55;;;7.10;87.90;;;;;;5035046;28;20136;-60
2023/02/13 03:13:35;;;;;;;10.30;5.90;;;7.00;87.80;;;;;;5035666;28;20051;-60
2023/02/13 03:24:43;;;;;;;10.55;5.10;;;6.90;87.90;;;;;;5032301;28;20045;-60
2023/02/13 03:30:05;;;;;;;9.48;5.18;;;6.90;88.00;;;;;;5034273;28;20044;-60
2023/02/13 03:30:15;;;;;;;9.15;4.90;;;6.80;87.90;;;;;;5032708;28;20495;-59
2023/02/13 03:32:47;;;;;;;10.52;5.32;;;6.80;88.00;;;;;;5033248;28;20053;-61
2023/02/13 03:38:32;;;;;;;9.77;4.97;;;6.70;87.90;;;;;;4992908;28;20113;-59
2023/02/13 03:41:19;;;;;;;9.70;5.15;;;6.70;88.10;;;;;;4986484;28;20053;-61
2023/02/13 03:43:56;;;;;;;9.95;5.22;;;6.70;87.90;;;;;;5012734;28;20053;-60
2023/02/13 03:46:25;;;;;;;11.50;5.43;;;6.60;87.90;;;;;;5027361;28;20514;-60
2023/02/13 03:51:42;;;;;;;8.70;5.10;;;6.60;88.00;;;;;;5026532;28;20064;-60
2023/02/13 03:54:19;;;;;;;10.70;5.35;;;6.50;87.90;;;;;;5024330;28;20048;-61
2023/02/13 03:59:36;;;;;;;8.77;4.88;;;6.40;87.70;;;;;;5029984;28;25834;-60
2023/02/13 04:02:12;;;;;;;10.95;5.15;;;6.40;87.80;;;;;;5032693;28;20411;-60
2023/02/13 04:04:45;;;;;;;8.88;4.82;;;6.30;87.70;;;;;;5039360;28;20426;-61
2023/02/13 04:07:28;;;;;;;8.90;5.32;;;6.30;87.60;;;;;;5038653;28;20041;-61
2023/02/13 04:09:58;;;;;;;11.10;5.13;;;6.20;87.60;;;;;;5039869;28;20083;-60
2023/02/13 04:12:33;;;;;;;10.63;5.07;;;6.20;87.60;;;;;;5038973;28;20053;-61
2023/02/13 04:15:07;;;;;;;7.93;4.28;;;6.10;87.60;;;;;;5038867;28;20510;-60
2023/02/13 04:17:37;;;;;;;7.93;4.60;;;6.10;87.60;;;;;;5039968;28;20057;-60
2023/02/13 04:20:05;;;;;;;9.02;4.13;;;6.10;87.60;;;;;;5037955;28;20050;-59
2023/02/13 04:22:32;;;;;;;7.40;3.90;;;6.00;87.60;;;;;;5037754;28;20049;-60
2023/02/13 04:25:01;;;;;;;9.07;4.00;;;6.00;87.60;;;;;;5039199;28;20057;-60
2023/02/13 04:27:28;;;;;;;7.22;3.78;;;5.90;87.60;;;;;;5038067;28;20065;-60
2023/02/13 04:29:55;;;;;;;7.63;3.55;;;5.90;87.40;;;;;;5037869;28;20137;-59
2023/02/13 04:32:22;;;;;;;7.38;3.85;;;5.80;87.50;;;;;;5034623;28;20041;-61
2023/02/13 04:34:49;;;;;;;7.00;3.47;;;5.80;87.40;;;;;;5039358;28;20064;-61
2023/02/13 04:37:15;;;;;;;6.82;3.83;;;5.80;87.30;;;;;;5039144;28;20518;-60
2023/02/13 04:39:42;;;;;;;7.13;3.58;;;5.70;87.30;;;;;;5031218;28;20049;-60
2023/02/13 04:42:11;;;;;;;6.85;3.60;;;5.70;87.40;;;;;;5038660;28;20044;-61
2023/02/13 04:44:37;;;;;;;7.95;3.92;;;5.70;87.30;;;;;;5036016;28;20045;-61
2023/02/13 04:47:04;;;;;;;6.95;4.05;;;5.60;87.30;;;;;;5038751;28;20060;-60
2023/02/13 04:49:31;;;;;;;6.88;3.58;;;5.50;87.10;;;;;;5036585;28;20671;-59
2023/02/13 04:51:58;;;;;;;5.88;3.55;;;5.40;87.10;;;;;;5038974;28;20415;-60
2023/02/13 04:54:25;;;;;;;7.32;3.58;;;5.40;87.10;;;;;;5035232;28;20042;-60
2023/02/13 04:56:52;;;;;;;6.22;3.42;;;5.40;86.90;;;;;;5036432;28;20052;-61
2023/02/13 04:59:20;;;;;;;8.23;4.00;;;5.40;87.00;;;;;;5036447;28;20053;-60
2023/02/13 05:01:47;;;;;;;4.93;2.58;;;5.30;86.90;;;;;;5032554;28;20059;-59
2023/02/13 05:04:16;;;;;;;7.00;3.50;;;5.30;86.90;;;;;;5037899;28;20053;-61
2023/02/13 05:06:43;;;;;;;5.80;3.03;;;5.30;86.90;;;;;;5035380;28;20067;-59
2023/02/13 05:09:10;;;;;;;6.05;2.97;;;5.20;86.90;;;;;;5036698;28;20049;-59
2023/02/13 05:11:37;;;;;;;6.50;3.33;;;5.20;86.90;;;;;;5036653;28;20041;-61
2023/02/13 05:14:04;;;;;;;6.47;3.05;;;5.10;86.90;;;;;;5035200;28;20053;-60
2023/02/13 05:16:32;;;;;;;9.02;3.38;;;5.10;86.90;;;;;;5037631;28;20049;-60
2023/02/13 05:18:59;;;;;;;8.05;3.50;;;5.10;86.80;;;;;;5035678;28;20068;-60
2023/02/13 05:24:11;;;;;;;6.80;3.15;;;4.90;86.70;;;;;;5033901;28;20048;-61
2023/02/13 05:26:37;;;;;;;6.10;3.35;;;4.90;86.70;;;;;;5038519;28;20049;-61
2023/02/13 05:29:21;;;;;;;8.43;3.88;;;4.90;86.60;;;;;;5038636;28;20049;-60
2023/02/13 05:31:51;;;;;;;5.97;2.90;;;4.80;86.50;;;;;;5036082;28;20048;-60
2023/02/13 05:34:19;;;;;;;6.57;3.30;;;4.80;86.50;;;;;;5037059;28;20483;-59
2023/02/13 05:36:46;;;;;;;7.78;3.47;;;4.70;86.50;;;;;;5037697;28;20489;-60
2023/02/13 05:39:14;;;;;;;7.50;3.58;;;4.70;86.40;;;;;;5036292;28;20045;-59
2023/02/13 05:41:40;;;;;;;7.72;3.50;;;4.70;86.40;;;;;;5028914;28;20053;-70
2023/02/13 05:44:08;;;;;;;7.10;3.90;;;4.70;86.40;;;;;;5036226;28;20049;-69
2023/02/13 05:46:36;;;;;;;6.30;3.30;;;4.70;86.40;;;;;;5026817;28;20045;-63
2023/02/13 05:49:05;;;;;;;6.72;3.58;;;4.70;86.40;;;;;;5030656;28;20045;-64
2023/02/13 05:51:33;;;;;;;7.07;3.40;;;4.60;86.30;;;;;;5029302;28;20408;-64
2023/02/13 05:53:59;;;;;;;6.07;3.20;;;4.60;86.30;;;;;;5036814;28;20045;-65
2023/02/13 05:56:26;;;;;;;7.28;3.30;;;4.60;86.40;;;;;;5036437;28;20045;-60
2023/02/13 05:58:54;;;;;;;6.40;3.17;;;4.60;86.30;;;;;;5035796;28;20049;-66
2023/02/13 06:01:21;;;;;;;6.13;3.42;;;4.50;86.30;;;;;;5035849;28;20049;-62
2023/02/13 06:03:48;;;;;;;7.13;3.65;;;4.40;86.30;;;;;;5035942;28;20041;-61
2023/02/13 06:06:17;;;;;;;8.85;4.60;;;4.40;86.30;;;;;;5032280;28;20416;-64
2023/02/13 06:08:44;;;;;;;7.82;3.97;;;4.40;86.30;;;;;;5035652;28;20063;-64
2023/02/13 06:11:12;;;;;;;8.43;4.30;;;4.40;86.20;;;;;;5036438;28;20041;-63
2023/02/13 06:13:39;;;;;;;7.63;3.75;;;4.40;86.30;;;;;;5033529;28;20099;-61
2023/02/13 06:16:07;;;;;;;9.23;4.38;;;4.30;86.30;;;;;;5035927;28;20059;-63
2023/02/13 06:18:34;;;;;;;7.97;4.07;;;4.20;86.40;;;;;;5034748;28;20049;-64
2023/02/13 06:21:01;;;;;;;7.88;4.20;;;4.30;86.40;;;;;;5038542;28;20049;-64
2023/02/13 06:23:29;;;;;;;7.65;3.72;;;4.20;86.30;;;;;;5033782;28;20080;-63
2023/02/13 06:25:56;;;;;;;7.18;3.85;;;4.20;86.20;;;;;;5036691;28;20056;-62
2023/02/13 06:28:23;;;;;;;8.73;3.60;;;4.20;86.30;;;;;;5034597;28;20706;-64
2023/02/13 06:30:50;;;;;;;7.78;3.88;;;4.10;86.20;;;;;;5035162;28;20050;-63
2023/02/13 06:33:17;;;;;;;7.78;3.90;;;4.10;86.10;;;;;;5031763;28;20399;-62
2023/02/13 06:35:44;;;;;;;8.40;4.05;;;4.10;86.10;;;;;;5033251;28;20045;-62
2023/02/13 06:38:11;;;;;;;7.53;3.60;;;4.00;86.10;;;;;;5035921;28;20052;-63
2023/02/13 06:40:40;;;;;;;7.93;4.35;;;4.00;86.10;;;;;;5036070;28;20084;-61
2023/02/13 06:43:07;;;;;;;8.48;3.65;;;4.00;86.00;;;;;;5028046;28;20041;-61
2023/02/13 06:45:33;;;;;;;8.82;4.15;;;3.90;86.10;;;;;;5034941;28;20048;-61
2023/02/13 06:48:00;;;;;;;8.85;5.47;;;4.00;86.00;;;;;;5036360;28;20056;-62
2023/02/13 06:50:28;;;;;;;10.85;5.43;;;3.90;86.00;;;;;;5032727;28;20053;-62
2023/02/13 06:52:54;;;;;;;10.32;5.28;;;3.90;86.00;;;;;;5029910;28;20044;-62
2023/02/13 06:55:21;;;;;;;10.98;5.32;;;3.90;85.90;;;;;;5025145;28;20044;-62
2023/02/13 06:57:50;;;;;;;9.95;6.03;;;3.90;85.90;;;;;;5029023;28;20115;-63
2023/02/13 07:00:18;;;;;;;9.10;5.35;;;3.80;86.00;;;;;;5029949;28;20053;-62
2023/02/13 07:02:46;;;;;;;9.10;5.45;;;3.80;86.10;;;;;;5024116;28;20041;-63
2023/02/13 07:05:14;;;;;;;12.10;6.45;;;3.80;86.00;;;;;;5027176;28;20049;-63
2023/02/13 07:07:42;;;;;;;11.50;6.57;;;3.80;86.20;;;;;;5030604;28;20141;-60
2023/02/13 07:10:11;;;;;;;10.90;6.50;;;3.80;86.50;;;;;;5032343;28;20052;-60
2023/02/13 07:12:41;;;;;;;13.18;7.55;;;3.70;86.70;;;;;;5028271;28;20564;-60
2023/02/13 07:15:10;;;;;;;13.23;7.25;;;3.80;86.80;;;;;;5032199;28;20419;-60
2023/02/13 07:17:37;;;;;;;12.20;6.53;;;3.80;86.70;;;;;;5031097;28;20128;-60
2023/02/13 07:20:05;;;;;;;12.77;6.80;;;3.90;86.60;;;;;;5028624;28;20057;-60
2023/02/13 07:22:32;;;;;;;13.77;6.75;;;3.80;87.00;;;;;;5032454;28;20144;-59
2023/02/13 07:24:59;;;;;;;12.90;6.25;;;3.90;86.90;;;;;;5033335;28;20052;-60
2023/02/13 07:27:29;;;;;;;14.07;6.32;;;3.90;87.10;;;;;;5028642;28;20412;-60
2023/02/13 07:29:56;;;;;;;12.23;5.82;;;3.90;87.40;;;;;;5027369;28;20054;-60
2023/02/13 07:32:25;;;;;;;9.93;5.10;;;3.90;87.50;;;;;;5029554;28;20162;-60
2023/02/13 07:34:52;;;;;;;10.10;5.05;;;3.90;87.60;;;;;;5031069;28;20065;-61
2023/02/13 07:37:19;;;;;;;10.55;5.72;;;4.00;87.70;;;;;;5027453;28;20050;-70
2023/02/13 07:39:46;;;;;;;8.27;4.55;;;4.00;87.70;;;;;;5027825;28;20049;-69
2023/02/13 07:42:13;;;;;;;11.60;5.35;;;4.00;87.90;;;;;;5028709;28;20045;-63
2023/02/13 07:44:39;;;;;;;11.20;5.43;;;4.10;87.70;;;;;;5024679;28;20443;-63
2023/02/13 07:47:06;;;;;;;10.45;5.75;;;4.20;87.90;;;;;;5028680;28;20495;-66
2023/02/13 07:49:35;;;;;;;10.45;5.65;;;4.20;88.10;;;;;;5028376;28;20054;-68
2023/02/13 07:52:03;;;;;;;12.07;5.78;;;4.20;88.20;;;;;;5024612;28;20582;-68
2023/02/13 07:54:31;;;;;;;10.65;5.10;;;4.20;88.00;;;;;;5028203;28;20167;-67
2023/02/13 07:56:58;;;;;;;10.52;5.60;;;4.30;87.60;;;;;;5030917;28;20060;-68
2023/02/13 07:59:25;;;;;;;11.40;5.85;;;4.30;88.20;;;;;;5032939;28;20052;-67
2023/02/13 08:01:52;;;;;;;12.02;5.80;;;4.30;88.30;;;;;;5030625;28;20036;-60
2023/02/13 08:04:19;;;;;;;10.10;5.22;;;4.40;88.40;;;;;;5027906;28;20049;-59
2023/02/13 08:06:47;;;;;;;12.68;5.90;;;4.40;88.30;;;;;;5031528;28;20080;-64
2023/02/13 08:12:06;;;;;;;11.00;5.88;;;4.50;88.60;;;;;;5026709;28;20037;-70
2023/02/13 08:14:33;;;;;;;9.15;5.32;;;4.50;88.50;;;;;;5029533;28;20060;-70
2023/02/13 08:17:01;;;;;;;12.07;5.63;;;4.60;88.50;;;;;;5028903;28;20060;-70
2023/02/13 08:19:28;;;;;;;10.95;5.28;;;4.50;88.60;;;;;;5030110;28;20042;-70
2023/02/13 08:21:57;;;;;;;11.10;5.03;;;4.60;88.00;;;;;;5027379;28;20046;-60
2023/02/13 08:24:24;;;;;;;10.18;5.38;;;4.60;88.10;;;;;;5034145;28;20037;-60
2023/02/13 08:26:51;;;;;;;11.77;5.03;;;4.60;88.40;;;;;;5033237;28;20531;-61
2023/02/13 08:29:18;;;;;;;11.23;5.60;;;4.60;88.60;;;;;;5033979;28;20431;-60
2023/02/13 08:31:45;;;;;;;11.75;5.47;;;4.60;88.60;;;;;;5032613;28;20053;-70
2023/02/13 08:34:12;;;;;;;9.95;6.20;;;4.70;88.70;;;;;;5036225;28;20051;-70
2023/02/13 08:36:39;;;;;;;9.48;5.05;;;4.70;88.80;;;;;;5034522;28;20045;-70
2023/02/13 08:39:08;;;;;;;10.32;4.93;;;4.70;88.90;;;;;;5034104;28;20060;-70
2023/02/13 08:41:35;;;;;;;12.20;5.90;;;4.70;88.70;;;;;;5033229;28;20423;-69
2023/02/13 08:44:04;;;;;;;9.73;4.93;;;4.80;88.50;;;;;;5037011;28;20040;-68
2023/02/13 08:46:31;;;;;;;8.88;4.63;;;4.80;88.00;;;;;;5034281;28;20072;-70
2023/02/13 08:48:58;;;;;;;10.55;5.78;;;4.80;88.50;;;;;;5037318;28;20136;-70
2023/02/13 08:51:25;;;;;;;9.68;4.93;;;4.90;88.80;;;;;;5031492;28;20057;-69
2023/02/13 08:53:58;;;;;;;8.57;4.90;;;4.90;88.20;;;;;;5038043;28;20135;-69
2023/02/13 08:56:27;;;;;;;9.70;5.38;;;4.90;88.70;;;;;;5031470;28;20499;-70
2023/02/13 08:58:54;;;;;;;9.15;4.63;;;5.00;88.80;;;;;;5031798;28;20176;-69
2023/02/13 09:01:22;;;;;;;9.05;4.95;;;5.00;88.30;;;;;;5035958;28;20041;-60
2023/02/13 09:03:50;;;;;;;8.45;4.40;;;5.00;88.60;;;;;;5031972;28;20049;-60
2023/02/13 09:06:17;;;;;;;8.80;4.60;;;4.90;88.20;;;;;;5034802;28;20056;-65
2023/02/13 09:08:44;;;;;;;8.38;4.50;;;4.90;88.50;;;;;;5036760;28;20080;-64
2023/02/13 09:11:10;;;;;;;7.45;4.35;;;5.00;88.40;;;;;;5035561;28;20060;-63
2023/02/13 09:13:40;;;;;;;8.95;4.30;;;5.00;88.20;;;;;;5031929;28;20428;-63
2023/02/13 09:16:08;;;;;;;8.05;4.47;;;5.10;89.00;;;;;;5032622;28;20041;-60
2023/02/13 09:18:36;;;;;;;8.45;4.32;;;5.20;88.60;;;;;;5035543;28;20045;-61
2023/02/13 09:21:05;;;;;;;8.25;4.85;;;5.20;89.10;;;;;;5035452;28;20056;-60
2023/02/13 09:23:33;;;;;;;8.00;4.30;;;5.30;89.00;;;;;;5034907;28;20046;-60
2023/02/13 09:26:01;;;;;;;6.78;3.45;;;5.30;88.70;;;;;;5035490;28;20045;-60
2023/02/13 09:28:29;;;;;;;7.15;3.47;;;5.30;88.90;;;;;;5034389;28;20140;-60
2023/02/13 09:30:58;;;;;;;7.00;3.60;;;5.50;89.30;;;;;;5036932;28;20052;-59
2023/02/13 09:33:25;;;;;;;6.97;3.60;;;5.50;89.40;;;;;;5036010;28;20052;-59
2023/02/13 09:35:52;;;;;;;7.90;3.80;;;5.60;89.40;;;;;;5036876;28;20045;-57
2023/02/13 09:38:19;;;;;;;7.22;3.67;;;5.70;89.20;;;;;;5030751;28;20526;-58
2023/02/13 09:40:51;;;;;;;6.35;3.50;;;5.70;89.20;;;;;;5034614;28;20048;-58
2023/02/13 09:43:27;;;;;;;6.35;3.20;;;5.80;89.20;;;;;;5029203;28;20049;-59
2023/02/13 09:45:57;;;;;;;7.13;3.55;;;5.90;89.10;;;;;;5033051;28;20048;-59
2023/02/13 09:48:29;;;;;;;5.23;2.73;;;6.00;89.10;;;;;;5034627;28;20360;-58
2023/02/13 09:50:57;;;;;;;5.90;2.60;;;6.10;89.20;;;;;;5034063;28;20145;-60
2023/02/13 09:53:27;;;;;;;6.13;3.20;;;6.20;89.00;;;;;;5032226;28;20057;-63
2023/02/13 09:56:05;;;;;;;6.13;3.10;;;6.30;88.80;;;;;;5035016;28;20164;-60
2023/02/13 09:58:41;;;;;;;6.30;2.80;;;6.40;88.70;;;;;;5033794;28;20041;-61
2023/02/13 10:01:19;;;;;;;7.85;3.60;;;6.40;88.50;;;;;;5030565;28;20336;-60
2023/02/13 10:04:02;;;;;;;6.68;3.53;;;6.50;88.10;;;;;;5037475;28;20104;-60
2023/02/13 10:06:32;;;;;;;6.15;2.95;;;6.60;88.30;;;;;;5037483;28;20499;-60
2023/02/13 10:09:12;;;;;;;4.68;2.78;;;6.70;88.00;;;;;;5030170;28;20053;-60
2023/02/13 10:12:20;;;;;;;7.45;3.30;;;6.70;88.10;;;;;;5030608;28;20040;-60
2023/02/13 10:14:54;;;;;;;7.53;3.10;;;6.80;88.00;;;;;;5036365;28;20045;-61
2023/02/13 10:17:26;;;;;;;6.55;3.60;;;6.90;87.60;;;;;;5032479;28;20045;-60
2023/02/13 10:20:00;;;;;;;5.72;2.78;;;7.00;87.50;;;;;;5034702;28;20073;-59
2023/02/13 10:22:33;;;;;;;6.68;3.20;;;7.00;87.50;;;;;;5036422;28;20055;-60
2023/02/13 10:25:04;;;;;;;7.53;3.67;;;7.10;87.20;;;;;;5035482;28;20046;-60
2023/02/13 10:27:38;;;;;;;5.68;3.03;;;7.20;87.20;;;;;;5029190;28;20052;-60
2023/02/13 10:30:11;;;;;;;6.07;3.17;;;7.20;86.90;;;;;;5034570;28;20060;-60
2023/02/13 10:32:50;;;;;;;5.97;2.83;;;7.20;87.00;;;;;;5032213;28;20067;-60
2023/02/13 10:35:27;;;;;;;5.57;2.67;;;7.30;86.50;;;;;;5030286;28;20076;-60
2023/02/13 10:37:57;;;;;;;6.55;3.30;;;7.40;86.50;;;;;;5037359;28;20069;-59
2023/02/13 10:40:31;;;;;;;5.25;2.85;;;7.40;86.10;;;;;;5031850;28;20063;-59
2023/02/13 10:43:06;;;;;;;5.53;2.65;;;7.50;85.60;;;;;;5031689;28;20064;-61
2023/02/13 10:45:51;;;;;;;6.07;3.00;;;7.60;85.70;;;;;;5033997;28;20055;-60
2023/02/13 10:48:34;;;;;;;6.72;2.95;;;7.70;85.20;;;;;;5036643;28;20054;-61
2023/02/13 10:51:08;;;;;;;4.47;2.25;;;7.70;84.90;;;;;;5030695;28;20049;-60
2023/02/13 10:53:49;;;;;;;5.40;2.40;;;7.70;85.00;;;;;;5027028;28;20158;-60
2023/02/13 10:56:28;;;;;;;5.40;2.45;;;7.80;84.30;;;;;;5028003;28;20045;-60
2023/02/13 10:59:18;;;;;;;6.57;2.88;;;7.90;84.30;;;;;;5032306;28;20053;-61
2023/02/13 11:01:53;;;;;;;4.40;2.50;;;7.90;84.50;;;;;;5031497;28;20048;-59
2023/02/13 11:04:20;;;;;;;6.25;2.97;;;8.00;84.50;;;;;;5028373;28;20045;-60
2023/02/13 11:06:55;;;;;;;5.40;2.65;;;8.00;84.40;;;;;;5036235;28;20542;-60
2023/02/13 11:09:23;;;;;;;5.05;2.67;;;8.10;83.70;;;;;;5028692;28;20049;-61
2023/02/13 11:11:50;;;;;;;4.72;2.15;;;8.10;84.10;;;;;;5032661;28;20045;-60
2023/02/13 11:14:19;;;;;;;4.70;2.60;;;8.10;84.00;;;;;;5035801;28;20041;-61
2023/02/13 11:16:54;;;;;;;5.70;2.85;;;8.10;83.60;;;;;;5032867;28;20048;-61
2023/02/13 11:19:25;;;;;;;5.53;2.65;;;8.20;83.90;;;;;;5032220;28;20049;-59
2023/02/13 11:21:58;;;;;;;6.60;2.75;;;8.20;83.80;;;;;;5030794;28;20479;-60
2023/02/13 11:24:27;;;;;;;5.28;2.67;;;8.30;83.70;;;;;;5033396;28;20419;-59
2023/02/13 11:26:58;;;;;;;5.85;2.80;;;8.30;83.70;;;;;;5024830;28;20041;-60
2023/02/13 11:29:29;;;;;;;4.45;2.50;;;8.30;83.60;;;;;;5034322;28;20049;-59
2023/02/13 11:32:06;;;;;;;6.00;3.15;;;8.40;83.50;;;;;;5030206;28;20052;-60
2023/02/13 11:34:34;;;;;;;5.85;2.85;;;8.40;83.50;;;;;;5025381;28;20053;-61
2023/02/13 11:37:21;;;;;;;4.88;2.53;;;8.40;83.70;;;;;;5030627;28;20052;-61
2023/02/13 11:39:50;;;;;;;4.78;2.75;;;8.50;83.50;;;;;;5033275;28;20431;-60
2023/02/13 11:42:27;;;;;;;5.35;2.70;;;8.50;82.80;;;;;;5034345;28;20132;-61
2023/02/13 11:44:58;;;;;;;4.93;2.47;;;8.50;82.20;;;;;;5033021;28;20070;-61
2023/02/13 11:47:38;;;;;;;5.90;2.90;;;8.50;82.70;;;;;;5031326;28;20045;-60
2023/02/13 11:50:19;;;;;;;4.97;2.67;;;8.60;83.00;;;;;;5031848;28;20424;-61
2023/02/13 11:52:54;;;;;;;5.30;2.60;;;8.50;83.10;;;;;;5032834;28;20431;-61
2023/02/13 11:55:28;;;;;;;5.22;2.55;;;8.60;82.90;;;;;;5032960;28;20045;-60
2023/02/13 11:58:00;;;;;;;6.40;2.85;;;8.60;83.10;;;;;;5031750;28;20053;-60
2023/02/13 12:00:36;;;;;;;5.93;2.85;;;8.60;83.30;;;;;;5031400;28;20045;-61
2023/02/13 12:03:24;;;;;;;6.00;3.00;;;8.60;83.00;;;;;;5030914;28;20127;-63
2023/02/13 12:06:01;;;;;;;5.80;2.75;;;8.60;83.00;;;;;;5032393;28;20057;-61
2023/02/13 12:08:30;;;;;;;6.38;2.70;;;8.60;82.40;;;;;;5038583;28;20053;-60
2023/02/13 12:10:58;;;;;;;5.28;2.70;;;8.60;82.30;;;;;;5038289;28;20052;-60
2023/02/13 12:13:32;;;;;;;5.95;2.97;;;8.60;82.50;;;;;;5039272;28;20056;-61
2023/02/13 12:16:02;;;;;;;6.85;3.42;;;8.60;83.00;;;;;;5036245;28;20042;-60
2023/02/13 12:18:33;;;;;;;5.65;3.25;;;8.60;83.30;;;;;;5033743;28;20138;-60
2023/02/13 12:21:14;;;;;;;6.60;3.00;;;8.60;82.80;;;;;;5032761;28;20045;-61
2023/02/13 12:23:51;;;;;;;5.57;2.80;;;8.60;83.10;;;;;;5039633;28;20057;-60
2023/02/13 12:26:26;;;;;;;6.15;3.03;;;8.60;82.90;;;;;;5035375;28;20160;-61
2023/02/13 12:29:30;;;;;;;6.03;2.88;;;8.70;82.40;;;;;;5030707;28;20057;-61
2023/02/13 12:32:10;;;;;;;4.82;2.50;;;8.60;82.80;;;;;;5035399;28;20074;-60
2023/02/13 12:35:03;;;;;;;5.03;2.55;;;8.70;82.40;;;;;;5031534;28;20141;-60
2023/02/13 12:37:43;;;;;;;6.28;3.17;;;8.70;82.20;;;;;;5035169;28;21124;-60
2023/02/13 12:40:26;;;;;;;6.38;3.00;;;8.70;82.00;;;;;;5028406;28;20041;-61
2023/02/13 12:43:22;;;;;;;5.53;2.78;;;8.70;82.40;;;;;;5034330;28;20045;-60
2023/02/13 12:45:59;;;;;;;6.45;2.72;;;8.70;82.00;;;;;;5037685;28;20049;-60
2023/02/13 12:48:35;;;;;;;6.57;2.97;;;8.70;82.40;;;;;;5031713;28;20057;-61
2023/02/13 12:51:17;;;;;;;4.45;2.60;;;8.70;82.40;;;;;;5034261;28;20059;-61
2023/02/13 12:54:14;;;;;;;5.65;2.72;;;8.70;81.80;;;;;;5039061;28;20068;-61
2023/02/13 12:56:53;;;;;;;6.10;2.47;;;8.70;81.90;;;;;;5021564;28;20649;-62
2023/02/13 12:59:30;;;;;;;5.55;2.67;;;8.70;82.00;;;;;;5032202;28;20061;-61
2023/02/13 13:02:25;;;;;;;5.85;2.60;;;8.70;82.10;;;;;;5031341;28;20060;-61
2023/02/13 13:05:04;;;;;;;4.40;2.38;;;8.70;81.60;;;;;;5030406;28;20068;-62
2023/02/13 13:07:50;;;;;;;6.00;2.63;;;8.70;81.50;;;;;;5028663;28;20061;-62
2023/02/13 13:10:41;;;;;;;5.60;2.80;;;8.70;81.60;;;;;;5033382;28;20046;-61
2023/02/13 13:13:21;;;;;;;6.38;2.90;;;8.70;81.70;;;;;;5029399;28;20519;-60
2023/02/13 13:15:54;;;;;;;4.60;2.28;;;8.70;81.70;;;;;;5029746;28;20085;-62
2023/02/13 13:18:32;;;;;;;5.18;2.60;;;8.70;81.90;;;;;;5035858;28;20048;-60
2023/02/13 13:21:06;;;;;;;5.82;2.60;;;8.70;81.60;;;;;;5032657;28;20051;-63
2023/02/13 13:23:40;;;;;;;5.85;2.90;;;8.70;81.80;;;;;;5038585;28;20075;-64
2023/02/13 13:26:16;;;;;;;6.53;3.03;;;8.70;82.10;;;;;;5033123;28;20056;-64
2023/02/13 13:28:47;;;;;;;4.68;2.35;;;8.70;81.90;;;;;;5039619;28;20081;-64
2023/02/13 13:31:14;;;;;;;5.85;2.75;;;8.70;81.20;;;;;;5031585;28;20037;-62
2023/02/13 13:33:44;;;;;;;4.22;2.40;;;8.70;81.40;;;;;;5035945;28;20048;-61
2023/02/13 13:36:19;;;;;;;5.90;2.40;;;8.70;81.30;;;;;;5027819;28;20064;-66
2023/02/13 13:38:58;;;;;;;4.43;2.38;;;8.70;81.40;;;;;;5024898;28;20052;-61
2023/02/13 13:41:32;;;;;;;5.20;2.40;;;8.80;81.10;;;;;;5026145;28;20081;-61
2023/02/13 13:44:16;;;;;;;6.20;2.65;;;8.80;81.00;;;;;;5031392;28;20042;-61
2023/02/13 13:46:52;;;;;;;4.85;2.65;;;8.80;81.50;;;;;;5035644;28;20579;-61
2023/02/13 13:49:48;;;;;;;5.55;2.50;;;8.70;81.50;;;;;;5034758;28;20390;-61
2023/02/13 13:52:26;;;;;;;4.57;2.40;;;8.70;81.40;;;;;;5024153;28;20040;-61
2023/02/13 13:54:54;;;;;;;7.20;2.90;;;8.70;81.50;;;;;;5035056;28;20041;-61